createdAt,value
2022-08-05T00:00:35.113Z,50.90
2022-08-05T00:01:36.534Z,50.71
2022-08-05T00:02:35.445Z,51.40
2022-08-05T00:03:34.549Z,51.10
2022-08-05T00:04:34.797Z,50.73
2022-08-05T00:06:04.801Z,51.23
2022-08-05T00:06:36.317Z,52.02
2022-08-05T00:07:59.887Z,52.02
2022-08-05T00:08:36.592Z,52.31
2022-08-05T00:09:35.772Z,52.31
2022-08-05T00:10:35.975Z,52.22
2022-08-05T00:11:48.534Z,51.62
2022-08-05T00:12:56.233Z,51.72
2022-08-05T00:13:39.478Z,51.94
2022-08-05T00:14:36.723Z,52.44
2022-08-05T00:15:55.374Z,52.73
2022-08-05T00:16:52.398Z,53.23
2022-08-05T00:17:38.230Z,53.13
2022-08-05T00:18:37.901Z,53.73
2022-08-05T00:19:45.709Z,53.43
2022-08-05T00:20:38.714Z,53.63
2022-08-05T00:21:37.984Z,52.73
2022-08-05T00:22:38.181Z,52.73
2022-08-05T00:23:46.060Z,53.33
2022-08-05T00:24:42.639Z,53.03
2022-08-05T00:25:45.862Z,53.03
2022-08-05T00:26:46.722Z,52.14
2022-08-05T00:27:42.789Z,52.64
2022-08-05T00:28:39.222Z,53.33
2022-08-05T00:29:39.433Z,53.23
2022-08-05T00:30:39.634Z,53.43
2022-08-05T00:31:53.190Z,54.02
2022-08-05T00:32:41.022Z,52.84
2022-08-05T00:34:56.799Z,53.23
2022-08-05T00:34:57.050Z,52.64
2022-08-05T00:35:47.843Z,52.34
2022-08-05T00:37:13.061Z,52.34
2022-08-05T00:37:52.877Z,52.04
2022-08-05T00:38:42.203Z,52.04
2022-08-05T00:39:57.092Z,52.64
2022-08-05T00:40:46.589Z,51.94
2022-08-05T00:41:55.445Z,51.94
2022-08-05T00:42:42.975Z,51.94
2022-08-05T00:43:47.133Z,52.44
2022-08-05T00:44:43.290Z,52.34
2022-08-05T00:45:43.646Z,53.13
2022-08-05T00:46:43.739Z,52.76
2022-08-05T00:47:56.494Z,53.75
2022-08-05T00:48:50.761Z,52.56
2022-08-05T00:49:51.020Z,52.76
2022-08-05T00:50:46.126Z,52.66
2022-08-05T00:51:50.978Z,53.16
2022-08-05T00:52:45.543Z,53.66
2022-08-05T00:54:01.218Z,54.35
2022-08-05T00:54:45.164Z,53.98
2022-08-05T00:55:44.370Z,53.58
2022-08-05T00:56:51.278Z,53.98
2022-08-05T00:57:57.868Z,53.78
2022-08-05T00:58:45.859Z,53.88
2022-08-05T00:59:45.093Z,53.98
2022-08-05T01:00:45.387Z,53.58
2022-08-05T01:01:48.695Z,53.48
2022-08-05T01:02:45.704Z,53.98
2022-08-05T01:03:45.915Z,54.57
2022-08-05T01:04:46.124Z,55.19
2022-08-05T01:05:46.284Z,55.40
2022-08-05T01:06:47.897Z,55.69
2022-08-05T01:08:30.393Z,55.99
2022-08-05T01:08:47.899Z,56.91
2022-08-05T01:09:47.110Z,56.41
2022-08-05T01:10:52.229Z,56.81
2022-08-05T01:11:47.443Z,56.91
2022-08-05T01:13:05.242Z,57.11
2022-08-05T01:13:58.316Z,57.41
2022-08-05T01:14:48.886Z,57.53
2022-08-05T01:15:48.149Z,57.64
2022-08-05T01:16:48.256Z,57.73
2022-08-05T01:17:53.727Z,58.23
2022-08-05T01:18:50.932Z,58.23
2022-08-05T01:20:00.755Z,58.73
2022-08-05T01:20:50.039Z,59.03
2022-08-05T01:21:50.785Z,59.42
2022-08-05T01:22:49.739Z,59.62
2022-08-05T01:23:53.011Z,59.92
2022-08-05T01:24:49.861Z,60.02
2022-08-05T01:25:53.279Z,60.05
2022-08-05T01:26:50.234Z,60.44
2022-08-05T01:27:55.125Z,60.74
2022-08-05T01:28:51.654Z,61.04
2022-08-05T01:29:51.810Z,60.94
2022-08-05T01:30:53.710Z,61.04
2022-08-05T01:31:51.297Z,61.14
2022-08-05T01:32:51.489Z,61.34
2022-08-05T01:33:53.545Z,61.44
2022-08-05T01:34:51.883Z,61.54
2022-08-05T01:35:53.427Z,61.64
2022-08-05T01:36:52.253Z,62.04
2022-08-05T01:37:52.466Z,61.94
2022-08-05T01:38:52.679Z,62.13
2022-08-05T01:39:52.811Z,62.13
2022-08-05T01:40:53.051Z,62.30
2022-08-05T01:41:53.239Z,62.53
2022-08-05T01:42:53.422Z,62.83
2022-08-05T01:43:53.617Z,63.03
2022-08-05T01:44:54.569Z,63.03
2022-08-05T01:45:55.273Z,63.23
2022-08-05T01:46:54.211Z,63.23
2022-08-05T01:47:55.522Z,63.53
2022-08-05T01:48:54.614Z,63.63
2022-08-05T01:50:01.704Z,63.73
2022-08-05T01:50:55.976Z,63.92
2022-08-05T01:51:55.186Z,64.03
2022-08-05T01:52:55.384Z,64.12
2022-08-05T01:53:58.736Z,64.12
2022-08-05T01:54:55.781Z,64.42
2022-08-05T01:55:55.984Z,64.52
2022-08-05T01:58:11.073Z,64.72
2022-08-05T01:58:11.257Z,64.62
2022-08-05T01:58:57.514Z,64.72
2022-08-05T01:59:56.722Z,64.92
2022-08-05T02:00:56.952Z,65.02
2022-08-05T02:01:57.758Z,65.31
2022-08-05T02:02:57.375Z,65.42
2022-08-05T02:03:57.638Z,65.31
2022-08-05T02:04:57.834Z,65.31
2022-08-05T02:06:00.871Z,65.64
2022-08-05T02:06:58.220Z,65.64
2022-08-05T02:08:01.305Z,65.75
2022-08-05T02:08:59.349Z,65.81
2022-08-05T02:09:58.922Z,65.31
2022-08-05T02:10:59.165Z,65.61
2022-08-05T02:11:59.376Z,65.61
2022-08-05T02:12:59.588Z,65.64
2022-08-05T02:13:59.807Z,65.64
2022-08-05T02:15:00.011Z,65.84
2022-08-05T02:16:00.238Z,65.75
2022-08-05T02:17:00.443Z,65.75
2022-08-05T02:18:28.451Z,65.75
2022-08-05T02:19:01.803Z,65.75
2022-08-05T02:20:01.954Z,65.55
2022-08-05T02:21:01.165Z,65.75
2022-08-05T02:22:01.377Z,65.64
2022-08-05T02:23:01.619Z,65.55
2022-08-05T02:24:01.797Z,65.55
2022-08-05T02:25:02.034Z,65.84
2022-08-05T02:26:02.168Z,65.45
2022-08-05T02:27:10.280Z,65.64
2022-08-05T02:28:08.864Z,65.64
2022-08-05T02:29:04.019Z,65.84
2022-08-05T02:30:03.062Z,65.94
2022-08-05T02:31:04.130Z,65.94
2022-08-05T02:32:04.695Z,65.84
2022-08-05T02:33:03.726Z,66.05
2022-08-05T02:34:03.928Z,65.94
2022-08-05T02:35:09.602Z,66.05
2022-08-05T02:36:05.412Z,65.98
2022-08-05T02:37:04.622Z,66.27
2022-08-05T02:38:04.840Z,66.38
2022-08-05T02:39:05.078Z,66.38
2022-08-05T02:40:05.222Z,66.38
2022-08-05T02:41:14.448Z,66.24
2022-08-05T02:42:06.643Z,66.27
2022-08-05T02:43:07.154Z,66.47
2022-08-05T02:44:13.021Z,66.05
2022-08-05T02:45:07.172Z,66.17
2022-08-05T02:46:06.383Z,66.47
2022-08-05T02:47:06.606Z,66.67
2022-08-05T02:48:12.328Z,66.57
2022-08-05T02:49:11.078Z,66.38
2022-08-05T02:50:07.270Z,66.38
2022-08-05T02:51:07.372Z,66.47
2022-08-05T02:52:07.804Z,66.67
2022-08-05T02:53:11.776Z,66.57
2022-08-05T02:54:08.972Z,66.77
2022-08-05T02:55:10.951Z,66.87
2022-08-05T02:56:08.381Z,67.07
2022-08-05T02:57:10.247Z,67.17
2022-08-05T02:58:13.235Z,67.07
2022-08-05T02:59:09.068Z,66.97
2022-08-05T03:00:09.273Z,67.17
2022-08-05T03:01:09.605Z,66.97
2022-08-05T03:02:09.761Z,67.07
2022-08-05T03:03:10.527Z,66.97
2022-08-05T03:04:14.052Z,66.97
2022-08-05T03:05:10.467Z,66.87
2022-08-05T03:06:56.649Z,66.87
2022-08-05T03:07:17.603Z,67.17
2022-08-05T03:08:12.414Z,67.07
2022-08-05T03:09:11.298Z,67.07
2022-08-05T03:10:13.400Z,67.07
2022-08-05T03:11:57.028Z,67.07
2022-08-05T03:12:12.922Z,67.07
2022-08-05T03:13:16.705Z,66.97
2022-08-05T03:14:13.394Z,67.07
2022-08-05T03:15:12.644Z,67.07
2022-08-05T03:16:12.842Z,67.07
2022-08-05T03:17:13.083Z,67.17
2022-08-05T03:18:13.295Z,67.17
2022-08-05T03:19:20.375Z,66.97
2022-08-05T03:20:14.695Z,66.87
2022-08-05T03:21:13.953Z,66.87
2022-08-05T03:22:16.752Z,66.87
2022-08-05T03:23:14.469Z,66.87
2022-08-05T03:24:14.721Z,66.77
2022-08-05T03:25:32.657Z,66.97
2022-08-05T03:26:31.700Z,66.67
2022-08-05T03:27:16.290Z,66.77
2022-08-05T03:28:18.831Z,66.97
2022-08-05T03:29:17.275Z,66.97
2022-08-05T03:30:33.319Z,66.67
2022-08-05T03:31:25.851Z,66.77
2022-08-05T03:32:17.235Z,66.67
2022-08-05T03:33:16.507Z,66.97
2022-08-05T03:34:16.718Z,67.17
2022-08-05T03:35:16.945Z,67.07
2022-08-05T03:36:17.105Z,67.17
2022-08-05T03:37:18.301Z,67.17
2022-08-05T03:38:17.484Z,67.07
2022-08-05T03:39:20.341Z,67.30
2022-08-05T03:40:24.375Z,67.50
2022-08-05T03:41:19.306Z,67.40
2022-08-05T03:42:18.506Z,67.40
2022-08-05T03:44:09.597Z,67.60
2022-08-05T03:44:20.222Z,67.40
2022-08-05T03:45:22.561Z,67.30
2022-08-05T03:46:19.277Z,67.60
2022-08-05T03:47:19.522Z,67.40
2022-08-05T03:48:21.894Z,67.40
2022-08-05T03:49:19.932Z,67.20
2022-08-05T03:50:20.107Z,67.47
2022-08-05T03:52:36.872Z,67.37
2022-08-05T03:52:38.087Z,67.30
2022-08-05T03:55:53.611Z,67.27
2022-08-05T03:55:53.956Z,67.27
2022-08-05T03:56:05.518Z,67.07
2022-08-05T03:56:33.145Z,67.17
2022-08-05T03:57:22.572Z,67.07
2022-08-05T03:58:22.730Z,67.07
2022-08-05T03:59:23.009Z,66.97
2022-08-05T04:00:22.193Z,66.87
2022-08-05T04:01:22.424Z,66.87
2022-08-05T04:02:38.615Z,67.07
2022-08-05T04:03:28.488Z,67.27
2022-08-05T04:04:26.528Z,67.27
2022-08-05T04:05:23.225Z,66.97
2022-08-05T04:06:23.286Z,66.77
2022-08-05T04:07:24.923Z,66.87
2022-08-05T04:08:35.184Z,66.97
2022-08-05T04:09:26.347Z,67.07
2022-08-05T04:10:24.107Z,66.97
2022-08-05T04:11:24.384Z,66.87
2022-08-05T04:12:25.545Z,67.07
2022-08-05T04:13:24.769Z,67.17
2022-08-05T04:14:30.421Z,66.97
2022-08-05T04:15:26.113Z,66.87
2022-08-05T04:16:32.488Z,67.07
2022-08-05T04:17:26.670Z,67.07
2022-08-05T04:18:26.915Z,66.87
2022-08-05T04:19:26.124Z,66.64
2022-08-05T04:20:26.318Z,66.54
2022-08-05T04:22:08.748Z,66.44
2022-08-05T04:22:27.706Z,66.24
2022-08-05T04:24:06.045Z,66.35
2022-08-05T04:24:28.095Z,66.54
2022-08-05T04:25:56.737Z,66.35
2022-08-05T04:26:32.522Z,66.44
2022-08-05T04:27:28.178Z,66.54
2022-08-05T04:28:30.779Z,66.35
2022-08-05T04:29:28.095Z,66.14
2022-08-05T04:30:28.273Z,66.41
2022-08-05T04:31:34.790Z,66.41
2022-08-05T04:32:31.213Z,66.51
2022-08-05T04:33:54.561Z,66.51
2022-08-05T04:34:32.576Z,65.72
2022-08-05T04:36:11.255Z,66.11
2022-08-05T04:36:49.808Z,65.98
2022-08-05T04:38:01.125Z,65.68
2022-08-05T04:38:39.498Z,65.58
2022-08-05T04:39:31.316Z,65.48
2022-08-05T04:40:30.281Z,65.68
2022-08-05T04:41:37.089Z,65.58
2022-08-05T04:42:31.656Z,66.18
2022-08-05T04:43:30.860Z,65.78
2022-08-05T04:44:31.089Z,65.98
2022-08-05T04:45:48.482Z,65.88
2022-08-05T04:46:32.455Z,65.65
2022-08-05T04:47:38.448Z,65.35
2022-08-05T04:48:32.826Z,65.95
2022-08-05T04:50:02.188Z,65.06
2022-08-05T04:50:37.193Z,64.86
2022-08-05T04:51:32.406Z,64.95
2022-08-05T04:52:34.105Z,65.16
2022-08-05T04:53:33.675Z,64.56
2022-08-05T04:54:32.976Z,65.25
2022-08-05T04:55:39.821Z,64.86
2022-08-05T04:56:37.002Z,65.32
2022-08-05T04:57:37.163Z,65.12
2022-08-05T04:58:33.787Z,64.43
2022-08-05T04:59:38.861Z,64.95
2022-08-05T05:00:35.145Z,64.83
2022-08-05T05:02:06.057Z,64.53
2022-08-05T05:02:41.853Z,64.83
2022-08-05T05:03:41.828Z,64.73
2022-08-05T05:04:35.787Z,64.33
2022-08-05T05:05:34.952Z,64.73
2022-08-05T05:06:40.929Z,64.73
2022-08-05T05:07:36.714Z,64.13
2022-08-05T05:08:36.430Z,64.13
2022-08-05T05:09:37.494Z,64.23
2022-08-05T05:10:35.847Z,64.50
2022-08-05T05:11:41.578Z,63.90
2022-08-05T05:12:37.222Z,63.90
2022-08-05T05:13:43.527Z,63.60
2022-08-05T05:14:37.583Z,63.48
2022-08-05T05:15:57.396Z,63.37
2022-08-05T05:16:37.934Z,63.48
2022-08-05T05:17:55.521Z,63.57
2022-08-05T05:18:38.336Z,64.07
2022-08-05T05:19:47.535Z,63.97
2022-08-05T05:20:38.695Z,63.67
2022-08-05T05:21:37.883Z,63.67
2022-08-05T05:22:40.870Z,63.28
2022-08-05T05:24:03.975Z,63.64
2022-08-05T05:24:57.758Z,63.64
2022-08-05T05:25:41.055Z,63.05
2022-08-05T05:26:39.713Z,63.18
2022-08-05T05:27:45.168Z,63.37
2022-08-05T05:28:42.899Z,63.74
2022-08-05T05:30:03.347Z,63.34
2022-08-05T05:30:40.496Z,63.54
2022-08-05T05:32:12.833Z,63.34
2022-08-05T05:33:17.143Z,63.45
2022-08-05T05:34:14.133Z,63.54
2022-08-05T05:35:13.255Z,63.34
2022-08-05T05:36:14.648Z,63.45
2022-08-05T05:37:13.531Z,63.54
2022-08-05T05:38:14.304Z,63.64
2022-08-05T05:39:13.930Z,63.24
2022-08-05T05:40:14.087Z,63.64
2022-08-05T05:41:14.191Z,63.84
2022-08-05T05:42:14.341Z,63.64
2022-08-05T05:43:14.530Z,63.45
2022-08-05T05:44:36.870Z,63.94
2022-08-05T05:45:15.771Z,63.15
2022-08-05T05:46:17.685Z,63.05
2022-08-05T05:47:21.619Z,63.45
2022-08-05T05:48:16.321Z,62.82
2022-08-05T05:49:22.988Z,63.42
2022-08-05T05:50:16.481Z,63.21
2022-08-05T05:51:16.165Z,63.21
2022-08-05T05:52:26.484Z,63.12
2022-08-05T05:53:21.350Z,63.12
2022-08-05T05:54:17.100Z,62.92
2022-08-05T05:55:16.241Z,62.95
2022-08-05T05:56:16.410Z,63.05
2022-08-05T05:57:19.237Z,63.15
2022-08-05T05:58:16.649Z,63.57
2022-08-05T05:59:16.827Z,63.77
2022-08-05T06:00:16.989Z,63.87
2022-08-05T06:01:17.151Z,63.97
2022-08-05T06:02:32.337Z,64.17
2022-08-05T06:03:40.868Z,64.59
2022-08-05T06:04:18.615Z,64.70
2022-08-05T06:05:17.661Z,64.89
2022-08-05T06:06:17.743Z,65.09
2022-08-05T06:07:17.941Z,64.89
2022-08-05T06:08:31.518Z,64.79
2022-08-05T06:09:27.452Z,64.79
2022-08-05T06:10:19.376Z,64.59
2022-08-05T06:11:18.536Z,64.56
2022-08-05T06:12:18.736Z,64.27
2022-08-05T06:13:18.867Z,64.27
2022-08-05T06:14:19.042Z,64.17
2022-08-05T06:15:23.976Z,64.86
2022-08-05T06:16:28.926Z,65.56
2022-08-05T06:17:32.039Z,65.56
2022-08-05T06:18:20.665Z,66.08
2022-08-05T06:19:33.915Z,66.48
2022-08-05T06:20:21.706Z,66.48
2022-08-05T06:21:19.999Z,66.78
2022-08-05T06:22:20.167Z,67.08
2022-08-05T06:23:20.291Z,66.78
2022-08-05T06:24:25.619Z,66.88
2022-08-05T06:25:25.119Z,67.08
2022-08-05T06:26:25.008Z,67.18
2022-08-05T06:28:10.447Z,67.08
2022-08-05T06:28:22.175Z,67.18
2022-08-05T06:29:25.126Z,67.47
2022-08-05T06:30:22.312Z,67.80
2022-08-05T06:31:22.291Z,67.50
2022-08-05T06:32:28.712Z,67.77
2022-08-05T06:33:33.137Z,67.27
2022-08-05T06:34:22.809Z,67.38
2022-08-05T06:36:07.469Z,66.98
2022-08-05T06:36:26.041Z,66.85
2022-08-05T06:37:58.038Z,66.55
2022-08-05T06:38:35.942Z,66.55
2022-08-05T06:39:26.880Z,66.22
2022-08-05T06:40:27.955Z,66.02
2022-08-05T06:41:23.936Z,65.49
2022-08-05T06:42:23.122Z,65.17
2022-08-05T06:43:58.328Z,64.04
2022-08-05T06:44:24.348Z,64.04
2022-08-05T06:45:44.925Z,64.24
2022-08-05T06:46:30.430Z,64.97
2022-08-05T06:48:12.496Z,65.26
2022-08-05T06:48:50.122Z,65.46
2022-08-05T06:50:01.759Z,65.89
2022-08-05T06:50:25.063Z,66.39
2022-08-05T06:51:30.077Z,66.19
2022-08-05T06:52:37.427Z,66.58
2022-08-05T06:53:27.883Z,66.28
2022-08-05T06:54:25.941Z,66.55
2022-08-05T06:55:24.822Z,65.46
2022-08-05T06:56:26.292Z,65.76
2022-08-05T06:57:57.981Z,65.46
2022-08-05T06:58:34.733Z,65.03
2022-08-05T06:59:26.400Z,64.44
2022-08-05T07:00:25.665Z,64.01
2022-08-05T07:01:27.671Z,63.92
2022-08-05T07:02:26.782Z,63.12
2022-08-05T07:03:32.767Z,62.60
2022-08-05T07:04:27.038Z,63.79
2022-08-05T07:05:37.741Z,60.41
2022-08-05T07:06:28.432Z,59.09
2022-08-05T07:07:35.482Z,58.64
2022-08-05T07:08:27.619Z,57.95
2022-08-05T07:09:26.778Z,58.15
2022-08-05T07:10:32.209Z,57.82
2022-08-05T07:11:27.974Z,57.43
2022-08-05T07:12:27.120Z,58.45
2022-08-05T07:13:56.622Z,58.01
2022-08-05T07:14:29.631Z,58.70
2022-08-05T07:15:34.538Z,58.40
2022-08-05T07:17:56.611Z,59.64
2022-08-05T07:18:02.047Z,60.14
2022-08-05T07:18:30.067Z,60.66
2022-08-05T07:20:10.579Z,60.96
2022-08-05T07:20:33.802Z,61.25
2022-08-05T07:21:29.054Z,61.58
2022-08-05T07:22:30.020Z,62.07
2022-08-05T07:23:29.729Z,62.40
2022-08-05T07:24:28.741Z,62.50
2022-08-05T07:25:55.707Z,62.90
2022-08-05T07:26:29.739Z,63.52
2022-08-05T07:28:00.670Z,63.82
2022-08-05T07:28:29.981Z,63.65
2022-08-05T07:30:22.082Z,63.95
2022-08-05T07:30:32.447Z,64.44
2022-08-05T07:31:40.746Z,64.34
2022-08-05T07:32:30.498Z,63.75
2022-08-05T07:33:36.802Z,63.22
2022-08-05T07:34:30.785Z,63.85
2022-08-05T07:36:03.728Z,63.55
2022-08-05T07:36:31.020Z,63.85
2022-08-05T07:37:37.625Z,64.34
2022-08-05T07:38:33.803Z,64.64
2022-08-05T07:40:04.339Z,65.06
2022-08-05T07:40:33.253Z,65.26
2022-08-05T07:42:07.652Z,64.87
2022-08-05T07:42:33.975Z,65.46
2022-08-05T07:43:30.861Z,65.79
2022-08-05T07:44:31.022Z,66.09
2022-08-05T07:45:56.437Z,66.71
2022-08-05T07:46:32.329Z,66.61
2022-08-05T07:47:42.402Z,66.98
2022-08-05T07:49:02.810Z,66.78
2022-08-05T07:49:32.744Z,66.49
2022-08-05T07:50:33.623Z,67.18
2022-08-05T07:51:37.215Z,66.91
2022-08-05T07:52:33.097Z,67.11
2022-08-05T07:53:37.002Z,67.61
2022-08-05T07:54:41.271Z,67.80
2022-08-05T07:55:57.196Z,67.61
2022-08-05T07:57:00.286Z,67.90
2022-08-05T07:57:52.300Z,67.21
2022-08-05T07:58:58.644Z,67.31
2022-08-05T07:59:40.198Z,67.41
2022-08-05T08:00:34.174Z,67.50
2022-08-05T08:01:33.366Z,67.11
2022-08-05T08:03:14.744Z,67.44
2022-08-05T08:03:44.446Z,67.54
2022-08-05T08:04:38.076Z,68.13
2022-08-05T08:05:33.913Z,68.63
2022-08-05T08:06:35.017Z,69.65
2022-08-05T08:07:39.668Z,70.55
2022-08-05T08:08:35.319Z,70.65
2022-08-05T08:09:34.497Z,71.04
2022-08-05T08:10:34.667Z,71.25
2022-08-05T08:11:48.296Z,71.11
2022-08-05T08:12:49.248Z,70.02
2022-08-05T08:13:49.255Z,69.92
2022-08-05T08:14:36.117Z,69.43
2022-08-05T08:16:33.967Z,69.72
2022-08-05T08:16:50.092Z,69.92
2022-08-05T08:17:36.546Z,69.62
2022-08-05T08:18:35.674Z,69.72
2022-08-05T08:20:21.308Z,68.93
2022-08-05T08:21:00.009Z,68.04
2022-08-05T08:21:37.126Z,67.11
2022-08-05T08:22:36.262Z,67.50
2022-08-05T08:24:03.100Z,66.75
2022-08-05T08:24:51.753Z,65.92
2022-08-05T08:26:02.817Z,65.73
2022-08-05T08:26:37.796Z,66.42
2022-08-05T08:27:44.981Z,66.13
2022-08-05T08:28:59.213Z,65.53
2022-08-05T08:30:03.833Z,65.03
2022-08-05T08:30:47.705Z,64.87
2022-08-05T08:31:38.341Z,64.77
2022-08-05T08:32:41.702Z,65.46
2022-08-05T08:33:38.554Z,66.19
2022-08-05T08:34:37.846Z,65.30
2022-08-05T08:35:41.256Z,64.90
2022-08-05T08:36:52.485Z,65.62
2022-08-05T08:37:39.305Z,66.02
2022-08-05T08:38:39.416Z,66.32
2022-08-05T08:39:38.583Z,66.32
2022-08-05T08:40:39.716Z,66.61
2022-08-05T08:41:51.783Z,66.52
2022-08-05T08:42:50.368Z,66.61
2022-08-05T08:45:18.094Z,65.92
2022-08-05T08:45:23.752Z,66.02
2022-08-05T08:45:40.389Z,66.45
2022-08-05T08:46:39.548Z,66.35
2022-08-05T08:48:05.947Z,66.15
2022-08-05T08:48:59.678Z,66.65
2022-08-05T08:50:14.573Z,66.75
2022-08-05T08:51:21.987Z,66.94
2022-08-05T08:52:04.128Z,66.45
2022-08-05T08:52:41.385Z,67.05
2022-08-05T08:53:45.091Z,67.44
2022-08-05T08:54:42.266Z,66.55
2022-08-05T08:56:03.202Z,66.45
2022-08-05T08:56:47.899Z,66.15
2022-08-05T08:57:48.403Z,66.55
2022-08-05T08:58:44.649Z,66.65
2022-08-05T08:59:47.053Z,69.72
2022-08-05T09:00:42.672Z,73.10
2022-08-05T09:01:42.725Z,76.67
2022-08-05T09:02:41.898Z,73.19
2022-08-05T09:03:45.353Z,75.78
2022-08-05T09:04:58.435Z,76.90
2022-08-05T09:06:09.234Z,74.02
2022-08-05T09:06:43.507Z,73.13
2022-08-05T09:07:57.459Z,73.13
2022-08-05T09:08:43.736Z,73.16
2022-08-05T09:09:42.866Z,72.57
2022-08-05T09:10:43.009Z,73.16
2022-08-05T09:11:50.854Z,75.05
2022-08-05T09:12:44.287Z,73.76
2022-08-05T09:14:01.233Z,72.53
2022-08-05T09:14:58.480Z,72.44
2022-08-05T09:15:44.666Z,70.35
2022-08-05T09:16:48.598Z,71.04
2022-08-05T09:17:49.583Z,70.85
2022-08-05T09:18:45.060Z,70.85
2022-08-05T09:20:01.541Z,70.35
2022-08-05T09:20:45.352Z,69.32
2022-08-05T09:22:18.489Z,69.23
2022-08-05T09:22:51.695Z,69.09
2022-08-05T09:23:45.888Z,69.46
2022-08-05T09:24:45.058Z,69.32
2022-08-05T09:26:01.795Z,67.05
2022-08-05T09:26:46.335Z,65.03
2022-08-05T09:28:04.744Z,65.00
2022-08-05T09:28:46.566Z,65.30
2022-08-05T09:29:48.043Z,63.89
2022-08-05T09:30:52.884Z,63.39
2022-08-05T09:32:41.003Z,64.05
2022-08-05T09:32:48.806Z,64.48
2022-08-05T09:33:46.239Z,63.95
2022-08-05T09:34:46.335Z,63.26
2022-08-05T09:35:46.510Z,63.16
2022-08-05T09:36:55.615Z,64.64
2022-08-05T09:38:16.366Z,62.77
2022-08-05T09:38:47.871Z,63.46
2022-08-05T09:39:52.342Z,63.06
2022-08-05T09:40:52.721Z,62.37
2022-08-05T09:41:56.126Z,62.96
2022-08-05T09:42:48.481Z,62.57
2022-08-05T09:43:49.439Z,62.17
2022-08-05T09:44:50.415Z,62.50
2022-08-05T09:46:06.225Z,62.90
2022-08-05T09:46:53.495Z,63.52
2022-08-05T09:47:56.576Z,63.12
2022-08-05T09:48:55.430Z,62.82
2022-08-05T09:50:00.823Z,63.45
2022-08-05T09:50:49.229Z,64.04
2022-08-05T09:51:49.583Z,64.87
2022-08-05T09:52:52.788Z,64.17
2022-08-05T09:53:54.733Z,64.67
2022-08-05T09:54:49.801Z,65.20
2022-08-05T09:55:56.774Z,66.09
2022-08-05T09:56:52.373Z,67.28
2022-08-05T09:57:49.272Z,67.77
2022-08-05T09:58:50.407Z,73.46
2022-08-05T09:59:49.585Z,75.14
2022-08-05T10:00:49.671Z,72.63
2022-08-05T10:01:57.841Z,74.72
2022-08-05T10:02:50.990Z,75.15
2022-08-05T10:03:58.793Z,75.78
2022-08-05T10:04:51.270Z,73.00
2022-08-05T10:05:50.427Z,73.54
2022-08-05T10:06:58.720Z,72.24
2022-08-05T10:08:35.113Z,73.57
2022-08-05T10:08:53.911Z,73.86
2022-08-05T10:10:13.806Z,76.65
2022-08-05T10:10:54.099Z,78.11
2022-08-05T10:11:51.305Z,75.12
2022-08-05T10:12:51.478Z,72.54
2022-08-05T10:13:54.617Z,73.33
2022-08-05T10:14:54.391Z,75.59
2022-08-05T10:15:51.991Z,73.00
2022-08-05T10:16:52.988Z,72.57
2022-08-05T10:17:56.866Z,74.95
2022-08-05T10:18:53.470Z,75.51
2022-08-05T10:20:04.181Z,70.95
2022-08-05T10:20:53.750Z,71.11
2022-08-05T10:21:52.915Z,70.42
2022-08-05T10:22:53.091Z,71.41
2022-08-05T10:23:59.987Z,70.38
2022-08-05T10:24:54.360Z,69.49
2022-08-05T10:25:53.521Z,71.67
2022-08-05T10:26:53.736Z,68.80
2022-08-05T10:28:16.789Z,66.42
2022-08-05T10:28:56.545Z,67.84
2022-08-05T10:30:06.403Z,69.72
2022-08-05T10:32:53.603Z,71.84
2022-08-05T10:32:54.721Z,69.53
2022-08-05T10:33:01.214Z,72.63
2022-08-05T10:33:55.579Z,72.17
2022-08-05T10:34:54.753Z,73.66
2022-08-05T10:35:59.891Z,74.19
2022-08-05T10:36:56.008Z,71.94
2022-08-05T10:37:55.177Z,72.44
2022-08-05T10:38:55.418Z,72.87
2022-08-05T10:40:03.911Z,74.86
2022-08-05T10:40:58.215Z,78.24
2022-08-05T10:42:00.565Z,78.64
2022-08-05T10:42:57.006Z,76.75
2022-08-05T10:43:56.191Z,76.75
2022-08-05T10:44:56.352Z,77.15
2022-08-05T10:45:56.547Z,77.64
2022-08-05T10:46:57.679Z,76.45
2022-08-05T10:48:31.550Z,77.15
2022-08-05T10:49:01.522Z,77.25
2022-08-05T10:50:20.668Z,77.01
2022-08-05T10:50:58.304Z,77.21
2022-08-05T10:52:00.527Z,77.91
2022-08-05T10:52:58.955Z,74.33
2022-08-05T10:53:58.518Z,75.68
2022-08-05T10:54:58.021Z,73.93
2022-08-05T10:56:05.254Z,73.24
2022-08-05T10:56:59.326Z,75.02
2022-08-05T10:57:58.494Z,73.80
2022-08-05T10:58:58.698Z,73.69
2022-08-05T11:00:02.606Z,73.30
2022-08-05T11:01:02.687Z,73.66
2022-08-05T11:02:04.577Z,74.46
2022-08-05T11:03:24.233Z,73.23
2022-08-05T11:04:00.326Z,75.12
2022-08-05T11:04:59.471Z,72.30
2022-08-05T11:05:59.623Z,71.70
2022-08-05T11:06:59.753Z,70.91
2022-08-05T11:08:02.378Z,73.25
2022-08-05T11:09:01.077Z,70.25
2022-08-05T11:10:04.069Z,67.94
2022-08-05T11:11:07.739Z,68.01
2022-08-05T11:12:01.407Z,66.88
2022-08-05T11:13:01.351Z,68.93
2022-08-05T11:14:00.653Z,66.46
2022-08-05T11:15:01.424Z,64.51
2022-08-05T11:16:01.930Z,63.89
2022-08-05T11:17:14.090Z,62.55
2022-08-05T11:18:03.929Z,62.19
2022-08-05T11:19:01.384Z,59.05
2022-08-05T11:20:17.375Z,57.68
2022-08-05T11:21:02.540Z,55.69
2022-08-05T11:22:01.667Z,55.72
2022-08-05T11:23:05.899Z,56.80
2022-08-05T11:24:14.757Z,56.53
2022-08-05T11:26:02.960Z,57.42
2022-08-05T11:26:08.469Z,58.04
2022-08-05T11:27:03.087Z,58.70
2022-08-05T11:28:02.131Z,55.60
2022-08-05T11:29:06.937Z,54.75
2022-08-05T11:30:03.258Z,51.89
2022-08-05T11:31:02.339Z,52.99
2022-08-05T11:32:02.396Z,52.37
2022-08-05T11:33:02.484Z,52.86
2022-08-05T11:34:02.522Z,52.06
2022-08-05T11:35:02.649Z,52.03
2022-08-05T11:36:08.133Z,50.61
2022-08-05T11:37:55.151Z,52.23
2022-08-05T11:38:29.157Z,53.11
2022-08-05T11:39:03.907Z,52.67
2022-08-05T11:40:04.620Z,54.27
2022-08-05T11:41:35.061Z,53.26
2022-08-05T11:42:04.661Z,52.18
2022-08-05T11:43:03.115Z,51.56
2022-08-05T11:44:07.378Z,51.96
2022-08-05T11:45:05.313Z,52.25
2022-08-05T11:46:27.153Z,52.15
2022-08-05T11:47:11.777Z,50.73
2022-08-05T11:48:04.356Z,51.73
2022-08-05T11:49:03.415Z,49.12
2022-08-05T11:50:03.479Z,46.73
2022-08-05T11:51:03.601Z,46.44
2022-08-05T11:52:11.314Z,47.00
2022-08-05T11:53:04.703Z,46.92
2022-08-05T11:54:04.793Z,46.07
2022-08-05T11:55:07.409Z,46.95
2022-08-05T11:56:03.867Z,47.12
2022-08-05T11:57:08.338Z,47.29
2022-08-05T11:58:10.116Z,45.59
2022-08-05T11:59:05.007Z,45.88
2022-08-05T12:00:05.017Z,45.20
2022-08-05T12:01:04.587Z,46.15
2022-08-05T12:02:04.118Z,45.54
2022-08-05T12:03:04.277Z,43.74
2022-08-05T12:04:04.287Z,44.13
2022-08-05T12:05:06.793Z,44.17
2022-08-05T12:06:06.686Z,44.78
2022-08-05T12:07:05.346Z,46.09
2022-08-05T12:08:09.917Z,46.48
2022-08-05T12:09:05.452Z,46.92
2022-08-05T12:10:09.223Z,44.98
2022-08-05T12:11:06.368Z,43.65
2022-08-05T12:12:04.608Z,41.64
2022-08-05T12:13:04.673Z,39.98
2022-08-05T12:14:05.668Z,42.29
2022-08-05T12:15:04.714Z,43.09
2022-08-05T12:16:04.734Z,42.41
2022-08-05T12:18:00.695Z,42.60
2022-08-05T12:18:10.776Z,43.55
2022-08-05T12:19:05.759Z,41.59
2022-08-05T12:20:27.889Z,41.94
2022-08-05T12:21:05.828Z,42.66
2022-08-05T12:22:04.883Z,43.29
2022-08-05T12:23:04.977Z,44.48
2022-08-05T12:24:06.994Z,44.41
2022-08-05T12:25:05.032Z,44.78
2022-08-05T12:26:05.093Z,44.44
2022-08-05T12:27:09.883Z,42.76
2022-08-05T12:28:06.144Z,42.60
2022-08-05T12:29:05.198Z,41.90
2022-08-05T12:30:05.218Z,41.73
2022-08-05T12:31:05.283Z,41.36
2022-08-05T12:32:05.344Z,43.13
2022-08-05T12:33:07.109Z,43.13
2022-08-05T12:34:06.464Z,42.66
2022-08-05T12:35:05.499Z,43.57
2022-08-05T12:36:07.046Z,43.04
2022-08-05T12:37:05.627Z,42.38
2022-08-05T12:38:05.698Z,44.66
2022-08-05T12:39:05.768Z,44.41
2022-08-05T12:40:10.838Z,44.74
2022-08-05T12:41:12.507Z,45.26
2022-08-05T12:42:08.461Z,45.86
2022-08-05T12:43:06.018Z,45.43
2022-08-05T12:44:06.091Z,45.21
2022-08-05T12:45:08.758Z,44.90
2022-08-05T12:46:06.231Z,44.07
2022-08-05T12:47:06.312Z,42.57
2022-08-05T12:48:17.283Z,43.57
2022-08-05T12:49:13.449Z,42.38
2022-08-05T12:50:07.470Z,44.07
2022-08-05T12:51:06.441Z,43.55
2022-08-05T12:52:13.976Z,44.79
2022-08-05T12:53:07.493Z,45.86
2022-08-05T12:54:16.910Z,45.37
2022-08-05T12:55:07.541Z,45.37